Bookmark and Share
Track history (hours):
 

Hansa Marburg

Last reported at 2014-Apr-15 22:19 UTC. Time now 2014-Apr-17 18:40 UTC.
Position N 10°23' W 016°55'.

Length 175 m; draft 9.4 m.

Type: Cargo ship. MMSI: 636091218.

NotesDate/timePositionNaut miles runAvg speedWind from/ knotsBaromVisibWave heightAir tempDewpointWater temp
2014-Apr-15 22:19N 10°23' W 016°55'1515.6
2014-Apr-15 21:22N 10°11' W 016°47'1515.5
2014-Apr-15 20:24N 09°59' W 016°39'1315.8
2014-Apr-15 19:33N 09°50' W 016°28'7815.7
2014-Apr-15 14:33N 08°57' W 015°30'3110.4
2014-Apr-15 11:33N 08°37' W 015°05'3215.6
2014-Apr-15 09:31N 08°15' W 014°42'  
2014-Apr-09 13:30N 06°09' E 003°17'1313.9
2014-Apr-09 12:34N 06°19' E 003°24'7 6.7
2014-Apr-09 11:33N 06°26' E 003°23'0 0.0
2014-Apr-09 09:31N 06°26' E 003°23'0 0.0
2014-Apr-09 08:10N 06°26' E 003°23'0 0.0
2014-Apr-09 07:31N 06°26' E 003°23'0 0.0
2014-Apr-09 06:31N 06°26' E 003°23'0 0.0
2014-Apr-09 05:31N 06°26' E 003°23'0 0.0
2014-Apr-09 04:31N 06°26' E 003°23'0 0.0
2014-Apr-09 03:31N 06°26' E 003°23'0 0.0
2014-Apr-09 02:31N 06°26' E 003°23'0 0.0
2014-Apr-09 01:33N 06°26' E 003°23'0 0.0
2014-Apr-09 00:33N 06°26' E 003°23'0 0.0
2014-Apr-08 23:33N 06°26' E 003°23'0 0.0
2014-Apr-08 22:33N 06°26' E 003°23'0 0.0
2014-Apr-08 21:33N 06°26' E 003°23'0 0.0
2014-Apr-08 20:33N 06°26' E 003°23'0 0.0
2014-Apr-08 19:33N 06°26' E 003°23'0 0.0
2014-Apr-08 18:33N 06°26' E 003°23'0 0.0
2014-Apr-08 17:33N 06°26' E 003°23'0 0.0
2014-Apr-08 16:33N 06°26' E 003°23'0 0.0
2014-Apr-08 13:09N 06°26' E 003°23'0 0.0
2014-Apr-08 12:33N 06°26' E 003°23'0 0.0
2014-Apr-08 11:33N 06°26' E 003°23'0 0.0
2014-Apr-08 09:17N 06°26' E 003°23'0 0.0
2014-Apr-08 08:33N 06°26' E 003°23'1 1.4
2014-Apr-08 07:34N 06°25' E 003°24'4 3.8
2014-Apr-08 06:33N 06°21' E 003°25'2 2.1
2014-Apr-08 05:34N 06°19' E 003°25'1 0.8
2014-Apr-08 04:33N 06°18' E 003°25'0 0.0
2014-Apr-08 03:33N 06°18' E 003°25'0 0.0
2014-Apr-08 02:33N 06°18' E 003°25'0 0.0
2014-Apr-08 01:33N 06°18' E 003°25'0 0.0
2014-Apr-08 00:30N 06°18' E 003°25'0 0.0
2014-Apr-07 23:33N 06°18' E 003°25'0 0.0
2014-Apr-07 22:33N 06°18' E 003°25'0 0.1
2014-Apr-07 21:33N 06°18' E 003°25'0 0.0
2014-Apr-07 20:33N 06°18' E 003°25'0 0.0
2014-Apr-07 19:33N 06°18' E 003°25'1 0.1
2014-Apr-07 06:10N 06°18' E 003°26'4 6.7
2014-Apr-07 05:33N 06°14' E 003°23'5 5.1
2014-Apr-07 04:33N 06°10' E 003°21'  

Dump ship's entire track history

sailing weather and tide predictions

Hansa Marburg — A8KV6 — position and weather